sensor_id;sensor_type;location;lat;lon;timestamp;pressure;altitude;pressure_sealevel;temperature;humidity
57248;BME280;55809;46.618;10.764;2023-04-24T00:01:39;91983.16;;;11.03;86.80
57248;BME280;55809;46.618;10.764;2023-04-24T00:04:06;91977.78;;;11.03;86.60
57248;BME280;55809;46.618;10.764;2023-04-24T00:06:36;91979.38;;;11.01;87.63
57248;BME280;55809;46.618;10.764;2023-04-24T00:09:05;91974.97;;;11.07;87.34
57248;BME280;55809;46.618;10.764;2023-04-24T00:11:32;91969.19;;;11.21;88.30
57248;BME280;55809;46.618;10.764;2023-04-24T00:13:59;91975.03;;;11.20;87.22
57248;BME280;55809;46.618;10.764;2023-04-24T00:16:26;91987.28;;;11.08;87.48
57248;BME280;55809;46.618;10.764;2023-04-24T00:18:53;91983.34;;;10.96;88.60
57248;BME280;55809;46.618;10.764;2023-04-24T00:21:20;91942.13;;;10.63;89.82
57248;BME280;55809;46.618;10.764;2023-04-24T00:23:50;91982.59;;;10.96;89.59
57248;BME280;55809;46.618;10.764;2023-04-24T00:26:19;91988.50;;;10.91;89.62
57248;BME280;55809;46.618;10.764;2023-04-24T00:28:46;91957.38;;;10.70;89.12
57248;BME280;55809;46.618;10.764;2023-04-24T00:31:13;91974.06;;;10.81;89.63
57248;BME280;55809;46.618;10.764;2023-04-24T00:33:40;91978.97;;;10.86;89.74
57248;BME280;55809;46.618;10.764;2023-04-24T00:36:07;91919.78;;;10.46;90.03
57248;BME280;55809;46.618;10.764;2023-04-24T00:38:34;91976.50;;;10.75;89.98
57248;BME280;55809;46.618;10.764;2023-04-24T00:41:01;91977.63;;;10.62;91.08
57248;BME280;55809;46.618;10.764;2023-04-24T00:43:29;91972.66;;;10.60;90.89
57248;BME280;55809;46.618;10.764;2023-04-24T00:45:57;91931.66;;;10.32;91.84
57248;BME280;55809;46.618;10.764;2023-04-24T00:48:25;91930.78;;;10.19;90.74
57248;BME280;55809;46.618;10.764;2023-04-24T00:50:52;91927.41;;;10.15;90.45
57248;BME280;55809;46.618;10.764;2023-04-24T00:53:19;91966.03;;;10.28;90.34
57248;BME280;55809;46.618;10.764;2023-04-24T00:55:46;91958.50;;;10.20;91.30
57248;BME280;55809;46.618;10.764;2023-04-24T00:58:13;91961.47;;;10.25;92.58
57248;BME280;55809;46.618;10.764;2023-04-24T01:00:42;91964.53;;;10.27;91.24
57248;BME280;55809;46.618;10.764;2023-04-24T01:03:10;91964.44;;;10.31;91.14
57248;BME280;55809;46.618;10.764;2023-04-24T01:05:38;91897.53;;;9.90;89.55
57248;BME280;55809;46.618;10.764;2023-04-24T01:08:06;91952.22;;;10.26;89.38
57248;BME280;55809;46.618;10.764;2023-04-24T01:10:33;91956.16;;;10.22;90.82
57248;BME280;55809;46.618;10.764;2023-04-24T01:13:01;91941.56;;;10.19;90.62
57248;BME280;55809;46.618;10.764;2023-04-24T01:15:28;91947.50;;;10.30;89.52
57248;BME280;55809;46.618;10.764;2023-04-24T01:17:57;91952.38;;;10.36;90.30
57248;BME280;55809;46.618;10.764;2023-04-24T01:20:24;91940.44;;;10.37;90.83
57248;BME280;55809;46.618;10.764;2023-04-24T01:22:54;91939.44;;;10.47;90.04
57248;BME280;55809;46.618;10.764;2023-04-24T01:25:22;91918.91;;;10.33;88.97
57248;BME280;55809;46.618;10.764;2023-04-24T01:27:50;91919.53;;;10.41;88.98
57248;BME280;55809;46.618;10.764;2023-04-24T01:30:17;91947.53;;;10.63;88.21
57248;BME280;55809;46.618;10.764;2023-04-24T01:32:44;91969.34;;;10.69;89.24
57248;BME280;55809;46.618;10.764;2023-04-24T01:35:11;91986.06;;;10.64;90.45
57248;BME280;55809;46.618;10.764;2023-04-24T01:37:38;91981.41;;;10.64;85.50
57248;BME280;55809;46.618;10.764;2023-04-24T01:40:08;91979.06;;;10.66;81.99
57248;BME280;55809;46.618;10.764;2023-04-24T01:42:35;91966.66;;;10.52;77.15
57248;BME280;55809;46.618;10.764;2023-04-24T01:45:04;91993.00;;;10.28;80.43
57248;BME280;55809;46.618;10.764;2023-04-24T01:47:31;91957.53;;;9.94;80.77
57248;BME280;55809;46.618;10.764;2023-04-24T01:49:58;91966.69;;;9.96;80.63
57248;BME280;55809;46.618;10.764;2023-04-24T01:52:25;92001.38;;;10.14;77.92
57248;BME280;55809;46.618;10.764;2023-04-24T01:54:54;92001.75;;;9.96;77.34
57248;BME280;55809;46.618;10.764;2023-04-24T01:57:22;92026.75;;;9.97;77.41
57248;BME280;55809;46.618;10.764;2023-04-24T01:59:50;92018.28;;;9.78;77.80
57248;BME280;55809;46.618;10.764;2023-04-24T02:02:17;92039.34;;;9.83;77.82
57248;BME280;55809;46.618;10.764;2023-04-24T02:04:46;91976.91;;;9.29;77.18
57248;BME280;55809;46.618;10.764;2023-04-24T02:07:13;92035.81;;;9.47;76.81
57248;BME280;55809;46.618;10.764;2023-04-24T02:09:40;91987.88;;;9.18;77.25
57248;BME280;55809;46.618;10.764;2023-04-24T02:12:07;92031.16;;;9.27;78.15
57248;BME280;55809;46.618;10.764;2023-04-24T02:14:35;92039.66;;;9.26;77.65
57248;BME280;55809;46.618;10.764;2023-04-24T02:17:02;92023.09;;;9.04;78.45
57248;BME280;55809;46.618;10.764;2023-04-24T02:19:30;92032.22;;;9.10;78.19
57248;BME280;55809;46.618;10.764;2023-04-24T02:21:57;92012.38;;;9.00;78.22
57248;BME280;55809;46.618;10.764;2023-04-24T02:24:24;92042.16;;;9.13;77.92
57248;BME280;55809;46.618;10.764;2023-04-24T02:26:50;92042.25;;;9.09;77.19
57248;BME280;55809;46.618;10.764;2023-04-24T02:29:17;92035.44;;;9.01;78.37
57248;BME280;55809;46.618;10.764;2023-04-24T02:31:46;91982.25;;;8.62;78.37
57248;BME280;55809;46.618;10.764;2023-04-24T02:34:13;92057.38;;;9.00;78.30
57248;BME280;55809;46.618;10.764;2023-04-24T02:36:40;92050.13;;;8.97;78.58
57248;BME280;55809;46.618;10.764;2023-04-24T02:39:06;92044.75;;;8.97;78.48
57248;BME280;55809;46.618;10.764;2023-04-24T02:41:33;92041.53;;;8.82;77.42
57248;BME280;55809;46.618;10.764;2023-04-24T02:44:00;92059.72;;;8.98;78.92
57248;BME280;55809;46.618;10.764;2023-04-24T02:46:27;92045.34;;;8.57;78.95
57248;BME280;55809;46.618;10.764;2023-04-24T02:48:55;92081.34;;;8.67;79.94
57248;BME280;55809;46.618;10.764;2023-04-24T02:51:22;92086.44;;;8.58;79.51
57248;BME280;55809;46.618;10.764;2023-04-24T02:53:49;92023.59;;;8.17;79.90
57248;BME280;55809;46.618;10.764;2023-04-24T02:56:16;92094.03;;;8.66;79.55
57248;BME280;55809;46.618;10.764;2023-04-24T02:58:43;92090.69;;;8.59;80.17
57248;BME280;55809;46.618;10.764;2023-04-24T03:01:10;92017.91;;;8.12;79.26
57248;BME280;55809;46.618;10.764;2023-04-24T03:03:37;92104.25;;;8.75;78.86
57248;BME280;55809;46.618;10.764;2023-04-24T03:06:06;92106.94;;;8.75;78.49
57248;BME280;55809;46.618;10.764;2023-04-24T03:08:33;92066.16;;;8.53;78.47
57248;BME280;55809;46.618;10.764;2023-04-24T03:11:00;92129.34;;;8.96;79.06
57248;BME280;55809;46.618;10.764;2023-04-24T03:13:27;92113.44;;;8.78;79.76
57248;BME280;55809;46.618;10.764;2023-04-24T03:15:54;92103.28;;;8.62;80.29
57248;BME280;55809;46.618;10.764;2023-04-24T03:18:21;92129.31;;;8.72;81.27
57248;BME280;55809;46.618;10.764;2023-04-24T03:20:48;92123.63;;;8.66;80.72
57248;BME280;55809;46.618;10.764;2023-04-24T03:23:17;92137.66;;;8.78;80.23
57248;BME280;55809;46.618;10.764;2023-04-24T03:25:44;92131.53;;;8.77;79.49
57248;BME280;55809;46.618;10.764;2023-04-24T03:28:11;92142.50;;;8.90;79.38
57248;BME280;55809;46.618;10.764;2023-04-24T03:30:37;92133.84;;;8.75;79.81
57248;BME280;55809;46.618;10.764;2023-04-24T03:33:04;92122.69;;;8.50;80.71
57248;BME280;55809;46.618;10.764;2023-04-24T03:35:31;92123.56;;;8.43;81.74
57248;BME280;55809;46.618;10.764;2023-04-24T03:37:58;92140.25;;;8.58;81.52
57248;BME280;55809;46.618;10.764;2023-04-24T03:40:27;92150.66;;;8.56;81.82
57248;BME280;55809;46.618;10.764;2023-04-24T03:42:54;92155.25;;;8.55;81.91
57248;BME280;55809;46.618;10.764;2023-04-24T03:45:21;92156.44;;;8.54;82.25
57248;BME280;55809;46.618;10.764;2023-04-24T03:47:49;92147.41;;;8.37;83.38
57248;BME280;55809;46.618;10.764;2023-04-24T03:50:16;92117.28;;;8.19;82.96
57248;BME280;55809;46.618;10.764;2023-04-24T03:52:43;92149.69;;;8.42;82.69
57248;BME280;55809;46.618;10.764;2023-04-24T03:55:10;92145.88;;;8.36;82.58
57248;BME280;55809;46.618;10.764;2023-04-24T03:57:39;92150.78;;;8.11;83.20
57248;BME280;55809;46.618;10.764;2023-04-24T04:00:07;92146.63;;;8.03;84.24
57248;BME280;55809;46.618;10.764;2023-04-24T04:02:35;92145.13;;;8.02;83.17
57248;BME280;55809;46.618;10.764;2023-04-24T04:05:02;92136.94;;;7.78;83.82
57248;BME280;55809;46.618;10.764;2023-04-24T04:07:29;92150.50;;;7.64;85.34
57248;BME280;55809;46.618;10.764;2023-04-24T04:09:56;92126.97;;;7.34;86.46
57248;BME280;55809;46.618;10.764;2023-04-24T04:12:23;92137.28;;;7.42;86.71
57248;BME280;55809;46.618;10.764;2023-04-24T04:14:52;92145.69;;;7.44;87.00
57248;BME280;55809;46.618;10.764;2023-04-24T04:17:18;92105.72;;;7.12;86.92
57248;BME280;55809;46.618;10.764;2023-04-24T04:19:45;92094.84;;;6.81;88.46
57248;BME280;55809;46.618;10.764;2023-04-24T04:22:12;92095.63;;;6.78;89.28
57248;BME280;55809;46.618;10.764;2023-04-24T04:24:39;92133.06;;;6.93;89.08
57248;BME280;55809;46.618;10.764;2023-04-24T04:27:06;92105.59;;;6.78;89.10
57248;BME280;55809;46.618;10.764;2023-04-24T04:29:33;92148.00;;;6.94;89.84
57248;BME280;55809;46.618;10.764;2023-04-24T04:32:01;92141.50;;;6.95;89.60
57248;BME280;55809;46.618;10.764;2023-04-24T04:34:28;92154.16;;;6.91;90.07
57248;BME280;55809;46.618;10.764;2023-04-24T04:36:57;92159.94;;;6.86;91.55
57248;BME280;55809;46.618;10.764;2023-04-24T04:39:26;92157.63;;;6.91;90.15
57248;BME280;55809;46.618;10.764;2023-04-24T04:41:55;92157.22;;;6.93;90.18
57248;BME280;55809;46.618;10.764;2023-04-24T04:44:22;92159.47;;;7.01;90.66
57248;BME280;55809;46.618;10.764;2023-04-24T04:46:49;92101.09;;;6.61;90.98
57248;BME280;55809;46.618;10.764;2023-04-24T04:49:20;92104.53;;;6.65;90.55
57248;BME280;55809;46.618;10.764;2023-04-24T04:51:46;92151.38;;;7.05;90.49
57248;BME280;55809;46.618;10.764;2023-04-24T04:54:14;92098.63;;;6.84;89.44
57248;BME280;55809;46.618;10.764;2023-04-24T04:56:41;92154.38;;;7.11;90.25
57248;BME280;55809;46.618;10.764;2023-04-24T04:59:07;92108.56;;;6.87;89.99
57248;BME280;55809;46.618;10.764;2023-04-24T05:01:34;92161.63;;;7.21;89.86
57248;BME280;55809;46.618;10.764;2023-04-24T05:04:02;92127.63;;;7.03;90.68
57248;BME280;55809;46.618;10.764;2023-04-24T05:06:30;92155.13;;;7.18;90.37
57248;BME280;55809;46.618;10.764;2023-04-24T05:08:57;92143.28;;;7.12;90.77
57248;BME280;55809;46.618;10.764;2023-04-24T05:11:24;92155.75;;;7.33;90.01
57248;BME280;55809;46.618;10.764;2023-04-24T05:13:51;92119.06;;;7.19;88.93
57248;BME280;55809;46.618;10.764;2023-04-24T05:16:18;92160.50;;;7.60;88.19
57248;BME280;55809;46.618;10.764;2023-04-24T05:18:44;92164.22;;;7.73;87.57
57248;BME280;55809;46.618;10.764;2023-04-24T05:21:11;92166.47;;;7.78;87.56
57248;BME280;55809;46.618;10.764;2023-04-24T05:23:40;92160.72;;;7.76;88.57
57248;BME280;55809;46.618;10.764;2023-04-24T05:26:07;92157.44;;;7.61;88.45
57248;BME280;55809;46.618;10.764;2023-04-24T05:28:34;92127.00;;;7.30;88.92
57248;BME280;55809;46.618;10.764;2023-04-24T05:31:02;92132.28;;;7.44;88.67
57248;BME280;55809;46.618;10.764;2023-04-24T05:33:28;92159.28;;;7.68;88.31
57248;BME280;55809;46.618;10.764;2023-04-24T05:35:56;92115.00;;;7.45;87.05
57248;BME280;55809;46.618;10.764;2023-04-24T05:38:23;92147.69;;;7.78;87.23
57248;BME280;55809;46.618;10.764;2023-04-24T05:40:51;92112.97;;;7.57;86.99
57248;BME280;55809;46.618;10.764;2023-04-24T05:43:18;92153.91;;;7.68;87.78
57248;BME280;55809;46.618;10.764;2023-04-24T05:45:45;92145.09;;;7.67;87.63
57248;BME280;55809;46.618;10.764;2023-04-24T05:48:12;92148.44;;;7.79;87.23
57248;BME280;55809;46.618;10.764;2023-04-24T05:50:38;92087.91;;;7.29;86.62
57248;BME280;55809;46.618;10.764;2023-04-24T05:53:05;92144.13;;;7.88;86.45
57248;BME280;55809;46.618;10.764;2023-04-24T05:55:33;92106.28;;;7.72;86.07
57248;BME280;55809;46.618;10.764;2023-04-24T05:58:02;92123.56;;;7.71;86.18
57248;BME280;55809;46.618;10.764;2023-04-24T06:00:30;92099.19;;;7.55;85.94
57248;BME280;55809;46.618;10.764;2023-04-24T06:02:56;92138.28;;;7.97;84.97
57248;BME280;55809;46.618;10.764;2023-04-24T06:05:24;92096.31;;;7.72;84.77
57248;BME280;55809;46.618;10.764;2023-04-24T06:07:51;92146.59;;;8.10;84.23
57248;BME280;55809;46.618;10.764;2023-04-24T06:10:18;92108.75;;;7.93;83.84
57248;BME280;55809;46.618;10.764;2023-04-24T06:12:45;92141.22;;;8.10;84.67
57248;BME280;55809;46.618;10.764;2023-04-24T06:15:13;92145.78;;;8.13;84.40
57248;BME280;55809;46.618;10.764;2023-04-24T06:17:40;92139.16;;;8.21;83.48
57248;BME280;55809;46.618;10.764;2023-04-24T06:20:08;92096.41;;;7.99;83.76
57248;BME280;55809;46.618;10.764;2023-04-24T06:22:36;92092.47;;;8.08;82.89
57248;BME280;55809;46.618;10.764;2023-04-24T06:25:06;92135.78;;;8.48;82.43
57248;BME280;55809;46.618;10.764;2023-04-24T06:27:33;92127.44;;;8.38;83.02
57248;BME280;55809;46.618;10.764;2023-04-24T06:30:00;92132.38;;;8.43;83.69
57248;BME280;55809;46.618;10.764;2023-04-24T06:32:29;92127.59;;;8.55;83.23
57248;BME280;55809;46.618;10.764;2023-04-24T06:34:56;92123.41;;;8.54;82.61
57248;BME280;55809;46.618;10.764;2023-04-24T06:37:23;92059.00;;;8.12;82.51
57248;BME280;55809;46.618;10.764;2023-04-24T06:39:50;92117.66;;;8.52;82.33
57248;BME280;55809;46.618;10.764;2023-04-24T06:42:17;92115.69;;;8.56;82.58
57248;BME280;55809;46.618;10.764;2023-04-24T06:44:46;92118.28;;;8.63;82.87
57248;BME280;55809;46.618;10.764;2023-04-24T06:47:13;92118.50;;;8.76;82.17
57248;BME280;55809;46.618;10.764;2023-04-24T06:49:42;92094.94;;;8.56;81.42
57248;BME280;55809;46.618;10.764;2023-04-24T06:52:09;92121.84;;;8.83;80.78
57248;BME280;55809;46.618;10.764;2023-04-24T06:54:36;92115.34;;;8.81;80.78
57248;BME280;55809;46.618;10.764;2023-04-24T06:57:03;92127.47;;;8.92;80.72
57248;BME280;55809;46.618;10.764;2023-04-24T06:59:30;92094.69;;;8.74;81.01
57248;BME280;55809;46.618;10.764;2023-04-24T07:01:57;92125.75;;;9.06;80.47
57248;BME280;55809;46.618;10.764;2023-04-24T07:04:24;92130.56;;;9.18;80.48
57248;BME280;55809;46.618;10.764;2023-04-24T07:06:53;92124.69;;;9.00;80.43
57248;BME280;55809;46.618;10.764;2023-04-24T07:09:21;92116.84;;;9.09;81.38
57248;BME280;55809;46.618;10.764;2023-04-24T07:11:49;92124.34;;;9.21;81.38
57248;BME280;55809;46.618;10.764;2023-04-24T07:14:16;92108.03;;;9.08;81.29
57248;BME280;55809;46.618;10.764;2023-04-24T07:16:45;92067.09;;;8.93;81.71
57248;BME280;55809;46.618;10.764;2023-04-24T07:19:13;92119.13;;;9.34;82.57
57248;BME280;55809;46.618;10.764;2023-04-24T07:21:40;92066.84;;;9.08;81.76
57248;BME280;55809;46.618;10.764;2023-04-24T07:24:08;92101.28;;;9.44;81.59
57248;BME280;55809;46.618;10.764;2023-04-24T07:26:37;92115.47;;;9.48;81.88
57248;BME280;55809;46.618;10.764;2023-04-24T07:29:03;92113.34;;;9.59;81.78
57248;BME280;55809;46.618;10.764;2023-04-24T07:31:31;92081.06;;;9.55;79.58
57248;BME280;55809;46.618;10.764;2023-04-24T07:33:58;92109.41;;;9.83;79.67
57248;BME280;55809;46.618;10.764;2023-04-24T07:36:25;92113.66;;;9.84;81.17
57248;BME280;55809;46.618;10.764;2023-04-24T07:38:54;92059.72;;;9.45;81.97
57248;BME280;55809;46.618;10.764;2023-04-24T07:41:22;92096.84;;;9.33;82.07
57248;BME280;55809;46.618;10.764;2023-04-24T07:43:49;92113.53;;;9.25;82.46
57248;BME280;55809;46.618;10.764;2023-04-24T07:46:17;92105.53;;;9.18;84.21
57248;BME280;55809;46.618;10.764;2023-04-24T07:48:45;92101.69;;;9.19;82.40
57248;BME280;55809;46.618;10.764;2023-04-24T07:51:13;92096.00;;;9.13;83.20
57248;BME280;55809;46.618;10.764;2023-04-24T07:53:40;92110.53;;;9.19;83.43
57248;BME280;55809;46.618;10.764;2023-04-24T07:56:07;92112.00;;;9.24;84.15
57248;BME280;55809;46.618;10.764;2023-04-24T07:58:36;92114.69;;;9.47;87.56
57248;BME280;55809;46.618;10.764;2023-04-24T08:01:03;92063.19;;;9.22;84.96
57248;BME280;55809;46.618;10.764;2023-04-24T08:03:30;92109.84;;;9.38;84.03
57248;BME280;55809;46.618;10.764;2023-04-24T08:05:57;92114.09;;;9.36;84.26
57248;BME280;55809;46.618;10.764;2023-04-24T08:08:24;92075.22;;;9.13;84.96
57248;BME280;55809;46.618;10.764;2023-04-24T08:10:51;92117.44;;;9.44;86.03
57248;BME280;55809;46.618;10.764;2023-04-24T08:13:18;92103.47;;;9.29;86.03
57248;BME280;55809;46.618;10.764;2023-04-24T08:15:47;92066.22;;;9.00;86.54
57248;BME280;55809;46.618;10.764;2023-04-24T08:18:14;92116.50;;;9.30;88.01
57248;BME280;55809;46.618;10.764;2023-04-24T08:20:41;92106.47;;;9.31;87.57
57248;BME280;55809;46.618;10.764;2023-04-24T08:23:08;92065.22;;;9.14;86.95
57248;BME280;55809;46.618;10.764;2023-04-24T08:25:35;92097.31;;;9.52;87.01
57248;BME280;55809;46.618;10.764;2023-04-24T08:28:02;92083.19;;;9.44;86.84
57248;BME280;55809;46.618;10.764;2023-04-24T08:30:30;92053.28;;;9.38;87.67
57248;BME280;55809;46.618;10.764;2023-04-24T08:32:59;92030.31;;;9.30;87.23
57248;BME280;55809;46.618;10.764;2023-04-24T08:35:25;92086.34;;;9.82;88.13
57248;BME280;55809;46.618;10.764;2023-04-24T08:37:53;92090.16;;;9.85;86.25
57248;BME280;55809;46.618;10.764;2023-04-24T08:40:23;92089.63;;;9.94;87.32
57248;BME280;55809;46.618;10.764;2023-04-24T08:42:54;92046.34;;;9.81;86.70
57248;BME280;55809;46.618;10.764;2023-04-24T08:45:21;92082.41;;;9.87;87.16
57248;BME280;55809;46.618;10.764;2023-04-24T08:47:50;92088.00;;;9.96;85.06
57248;BME280;55809;46.618;10.764;2023-04-24T08:50:20;92100.50;;;10.06;84.82
57248;BME280;55809;46.618;10.764;2023-04-24T08:52:49;92096.16;;;10.13;84.33
57248;BME280;55809;46.618;10.764;2023-04-24T08:55:18;92093.59;;;10.25;83.48
57248;BME280;55809;46.618;10.764;2023-04-24T08:57:48;92058.94;;;10.27;82.56
57248;BME280;55809;46.618;10.764;2023-04-24T09:00:16;92099.13;;;10.58;83.10
57248;BME280;55809;46.618;10.764;2023-04-24T09:02:43;92039.22;;;10.30;82.79
57248;BME280;55809;46.618;10.764;2023-04-24T09:05:12;92052.22;;;10.52;83.03
57248;BME280;55809;46.618;10.764;2023-04-24T09:07:44;92031.81;;;10.51;82.90
57248;BME280;55809;46.618;10.764;2023-04-24T09:10:12;92091.44;;;10.93;81.54
57248;BME280;55809;46.618;10.764;2023-04-24T09:12:39;92023.66;;;10.71;80.67
57248;BME280;55809;46.618;10.764;2023-04-24T09:15:07;92080.03;;;11.18;81.54
57248;BME280;55809;46.618;10.764;2023-04-24T09:17:34;92080.47;;;11.33;78.13
57248;BME280;55809;46.618;10.764;2023-04-24T09:20:02;92058.31;;;11.38;77.91
57248;BME280;55809;46.618;10.764;2023-04-24T09:22:30;92066.72;;;11.72;75.05
57248;BME280;55809;46.618;10.764;2023-04-24T09:25:04;92066.97;;;11.78;74.57
57248;BME280;55809;46.618;10.764;2023-04-24T09:27:32;92055.22;;;11.85;75.37
57248;BME280;55809;46.618;10.764;2023-04-24T09:30:00;92050.28;;;11.96;75.07
57248;BME280;55809;46.618;10.764;2023-04-24T09:32:27;92065.50;;;12.19;74.17
57248;BME280;55809;46.618;10.764;2023-04-24T09:35:08;92064.88;;;12.28;72.53
57248;BME280;55809;46.618;10.764;2023-04-24T09:37:37;92047.44;;;12.29;71.28
57248;BME280;55809;46.618;10.764;2023-04-24T09:40:20;92052.50;;;12.27;70.59
57248;BME280;55809;46.618;10.764;2023-04-24T09:42:52;92014.22;;;12.28;70.52
57248;BME280;55809;46.618;10.764;2023-04-24T09:45:20;92010.53;;;12.22;70.51
57248;BME280;55809;46.618;10.764;2023-04-24T09:47:51;92057.94;;;12.39;70.07
57248;BME280;55809;46.618;10.764;2023-04-24T09:50:18;92055.28;;;12.65;69.88
57248;BME280;55809;46.618;10.764;2023-04-24T09:52:46;92042.91;;;13.02;69.91
57248;BME280;55809;46.618;10.764;2023-04-24T09:55:18;92052.13;;;13.30;66.19
57248;BME280;55809;46.618;10.764;2023-04-24T09:57:50;92042.94;;;13.63;65.50
57248;BME280;55809;46.618;10.764;2023-04-24T10:00:24;92051.13;;;13.72;66.22
57248;BME280;55809;46.618;10.764;2023-04-24T10:02:56;92051.66;;;13.79;65.49
57248;BME280;55809;46.618;10.764;2023-04-24T10:05:26;92046.63;;;13.91;65.97
57248;BME280;55809;46.618;10.764;2023-04-24T10:07:56;92044.69;;;14.13;62.87
57248;BME280;55809;46.618;10.764;2023-04-24T10:10:25;92028.94;;;14.30;60.89
57248;BME280;55809;46.618;10.764;2023-04-24T10:12:52;91997.47;;;14.11;59.54
57248;BME280;55809;46.618;10.764;2023-04-24T10:15:20;92030.97;;;14.39;58.32
57248;BME280;55809;46.618;10.764;2023-04-24T10:17:49;91972.44;;;14.06;59.26
57248;BME280;55809;46.618;10.764;2023-04-24T10:20:21;92013.66;;;14.45;58.92
57248;BME280;55809;46.618;10.764;2023-04-24T10:22:50;92019.09;;;14.45;56.41
57248;BME280;55809;46.618;10.764;2023-04-24T10:25:18;91990.25;;;14.39;55.82
57248;BME280;55809;46.618;10.764;2023-04-24T10:27:49;92020.72;;;14.65;48.96
57248;BME280;55809;46.618;10.764;2023-04-24T10:30:17;92022.28;;;14.75;48.19
57248;BME280;55809;46.618;10.764;2023-04-24T10:32:44;92022.94;;;14.88;47.25
57248;BME280;55809;46.618;10.764;2023-04-24T10:35:13;92018.06;;;14.83;47.09
57248;BME280;55809;46.618;10.764;2023-04-24T10:37:42;92012.22;;;14.94;46.39
57248;BME280;55809;46.618;10.764;2023-04-24T10:40:11;92020.88;;;15.11;44.71
57248;BME280;55809;46.618;10.764;2023-04-24T10:42:40;92017.75;;;15.40;43.71
57248;BME280;55809;46.618;10.764;2023-04-24T10:45:16;92007.97;;;15.61;43.26
57248;BME280;55809;46.618;10.764;2023-04-24T10:47:51;92013.28;;;15.92;42.56
57248;BME280;55809;46.618;10.764;2023-04-24T10:50:18;92012.25;;;15.89;41.75
57248;BME280;55809;46.618;10.764;2023-04-24T10:52:46;91963.56;;;15.82;39.61
57248;BME280;55809;46.618;10.764;2023-04-24T10:55:14;92020.06;;;16.15;40.11
57248;BME280;55809;46.618;10.764;2023-04-24T10:58:01;92014.75;;;16.39;39.47
57248;BME280;55809;46.618;10.764;2023-04-24T11:00:30;92021.78;;;16.64;38.05
57248;BME280;55809;46.618;10.764;2023-04-24T11:02:57;92020.72;;;16.80;38.61
57248;BME280;55809;46.618;10.764;2023-04-24T11:05:49;92010.03;;;17.00;35.59
57248;BME280;55809;46.618;10.764;2023-04-24T11:08:22;92007.06;;;17.22;38.73
57248;BME280;55809;46.618;10.764;2023-04-24T11:10:58;92015.19;;;17.31;35.55
57248;BME280;55809;46.618;10.764;2023-04-24T11:13:28;92007.81;;;17.47;35.68
57248;BME280;55809;46.618;10.764;2023-04-24T11:16:20;92024.25;;;17.38;37.42
57248;BME280;55809;46.618;10.764;2023-04-24T11:18:51;91981.03;;;16.88;36.49
57248;BME280;55809;46.618;10.764;2023-04-24T11:21:21;92024.72;;;17.03;36.84
57248;BME280;55809;46.618;10.764;2023-04-24T11:23:49;92022.53;;;16.83;36.27
57248;BME280;55809;46.618;10.764;2023-04-24T11:26:18;92026.59;;;16.87;35.93
57248;BME280;55809;46.618;10.764;2023-04-24T11:28:46;92034.09;;;17.11;35.24
57248;BME280;55809;46.618;10.764;2023-04-24T11:31:38;92028.91;;;17.13;32.52
57248;BME280;55809;46.618;10.764;2023-04-24T11:34:10;92001.94;;;16.73;34.63
57248;BME280;55809;46.618;10.764;2023-04-24T11:36:37;92038.56;;;16.81;33.09
57248;BME280;55809;46.618;10.764;2023-04-24T11:39:05;92032.53;;;16.68;33.62
57248;BME280;55809;46.618;10.764;2023-04-24T11:41:33;92033.72;;;16.85;34.94
57248;BME280;55809;46.618;10.764;2023-04-24T11:44:01;92039.03;;;16.79;32.83
57248;BME280;55809;46.618;10.764;2023-04-24T11:46:29;92037.53;;;16.78;32.79
57248;BME280;55809;46.618;10.764;2023-04-24T11:48:59;92037.78;;;16.90;35.30
57248;BME280;55809;46.618;10.764;2023-04-24T11:51:27;92007.09;;;16.71;33.83
57248;BME280;55809;46.618;10.764;2023-04-24T11:53:54;92035.25;;;16.77;34.03
57248;BME280;55809;46.618;10.764;2023-04-24T11:56:22;92047.38;;;16.67;33.67
57248;BME280;55809;46.618;10.764;2023-04-24T11:58:52;92031.19;;;16.63;34.71
57248;BME280;55809;46.618;10.764;2023-04-24T12:01:19;91993.41;;;16.37;32.73
57248;BME280;55809;46.618;10.764;2023-04-24T12:03:48;92038.03;;;16.58;34.09
57248;BME280;55809;46.618;10.764;2023-04-24T12:06:18;92049.69;;;16.50;33.65
57248;BME280;55809;46.618;10.764;2023-04-24T12:08:46;92042.13;;;16.45;34.22
57248;BME280;55809;46.618;10.764;2023-04-24T12:11:15;92039.69;;;16.47;35.14
57248;BME280;55809;46.618;10.764;2023-04-24T12:13:43;92049.53;;;16.44;32.94
57248;BME280;55809;46.618;10.764;2023-04-24T12:16:10;92046.38;;;16.46;34.54
57248;BME280;55809;46.618;10.764;2023-04-24T12:18:41;92024.44;;;16.31;34.04
57248;BME280;55809;46.618;10.764;2023-04-24T12:21:17;92031.88;;;16.12;34.03
57248;BME280;55809;46.618;10.764;2023-04-24T12:23:45;92050.06;;;16.06;33.20
57248;BME280;55809;46.618;10.764;2023-04-24T12:26:12;92039.75;;;16.01;34.98
57248;BME280;55809;46.618;10.764;2023-04-24T12:28:42;92039.44;;;15.99;35.14
57248;BME280;55809;46.618;10.764;2023-04-24T12:31:09;92030.69;;;15.94;34.58
57248;BME280;55809;46.618;10.764;2023-04-24T12:33:36;92039.16;;;15.87;34.67
57248;BME280;55809;46.618;10.764;2023-04-24T12:36:04;92014.50;;;15.73;32.62
57248;BME280;55809;46.618;10.764;2023-04-24T12:38:33;92027.06;;;15.88;34.67
57248;BME280;55809;46.618;10.764;2023-04-24T12:41:07;92030.38;;;15.92;33.16
57248;BME280;55809;46.618;10.764;2023-04-24T12:43:35;92024.47;;;15.76;33.93
57248;BME280;55809;46.618;10.764;2023-04-24T12:46:02;92038.47;;;15.56;33.77
57248;BME280;55809;46.618;10.764;2023-04-24T12:48:30;92032.56;;;15.39;34.62
57248;BME280;55809;46.618;10.764;2023-04-24T12:50:58;91993.06;;;15.07;36.48
57248;BME280;55809;46.618;10.764;2023-04-24T12:53:27;92034.94;;;15.18;34.83
57248;BME280;55809;46.618;10.764;2023-04-24T12:55:58;92022.72;;;15.23;34.72
57248;BME280;55809;46.618;10.764;2023-04-24T12:58:25;92022.72;;;15.14;34.89
57248;BME280;55809;46.618;10.764;2023-04-24T13:00:52;91994.38;;;14.84;33.64